Time;durP1;ratioP1;P1;durP2;ratioP2;P2;SDS_P1;SDS_P2;PMS_P1;PMS_P2;Temp;Humidity;BMP_temperature;BMP_pressure;BME280_temperature;BME280_humidity;BME280_pressure;Samples;Min_cycle;Max_cycle;Signal;HPM_P1;HPM_P2
2021/12/04 00:00:54;;;;;;;3.37;3.07;;;;;;;0.67;58.41;97912.25;4808407;28;21354;-64
2021/12/04 00:03:22;;;;;;;4.20;3.40;;;;;;;1.33;58.98;97917.84;4684892;28;21381;-63
2021/12/04 00:05:55;;;;;;;3.70;3.30;;;;;;;2.18;57.13;97933.59;4778929;28;21782;-64
2021/12/04 00:08:25;;;;;;;3.30;3.00;;;;;;;1.42;58.50;97911.69;4946475;28;21357;-63
2021/12/04 00:10:53;;;;;;;3.30;3.10;;;;;;;1.29;58.84;97913.91;4937727;28;20702;-64
2021/12/04 00:13:20;;;;;;;3.87;3.57;;;;;;;1.22;59.45;97910.28;4099879;28;10121921;-64
2021/12/04 00:15:47;;;;;;;3.87;3.30;;;;;;;0.99;61.26;97911.66;4449798;28;20538;-64
2021/12/04 00:18:14;;;;;;;4.73;3.47;;;;;;;0.61;61.11;97908.44;3905749;28;20404;-64
2021/12/04 00:20:41;;;;;;;3.33;3.10;;;;;;;1.82;60.25;97915.47;4321896;28;5088791;-64
2021/12/04 00:23:09;;;;;;;4.70;3.57;;;;;;;0.95;61.96;97885.84;3468546;28;10005469;-64
2021/12/04 00:25:38;;;;;;;3.93;3.33;;;;;;;0.42;65.30;97905.97;4934308;28;20247;-64
2021/12/04 00:28:05;;;;;;;3.40;3.10;;;;;;;1.05;64.35;97885.75;4936589;28;20238;-64
2021/12/04 00:30:33;;;;;;;5.70;3.90;;;;;;;0.98;65.56;97875.84;4946743;28;20246;-63
2021/12/04 00:33:03;;;;;;;3.30;3.00;;;;;;;1.24;65.22;97863.66;4947074;28;20770;-64
2021/12/04 00:49:10;;;;;;;3.67;3.30;;;;;;;0.44;69.99;97815.69;4942752;29;21112;-64
2021/12/04 00:51:41;;;;;;;3.50;3.20;;;;;;;-0.12;75.70;97843.94;4946665;28;20234;-64
2021/12/04 00:54:12;;;;;;;3.90;3.10;;;;;;;0.83;73.41;97811.78;4936922;28;20230;-64
2021/12/04 00:56:41;;;;;;;5.40;3.30;;;;;;;1.08;71.99;97796.13;4935322;28;20241;-64
2021/12/04 00:59:09;;;;;;;4.13;3.20;;;;;;;0.90;74.04;97791.81;4947597;28;20224;-64
2021/12/04 01:01:39;;;;;;;4.23;3.83;;;;;;;1.35;72.47;97782.75;4946243;28;20647;-64
2021/12/04 01:04:15;;;;;;;4.20;3.30;;;;;;;0.74;73.56;97758.44;4945329;28;20242;-64
2021/12/04 01:06:42;;;;;;;5.73;3.53;;;;;;;1.13;73.82;97760.53;4943378;28;20242;-63
2021/12/04 01:09:11;;;;;;;3.67;3.37;;;;;;;1.43;72.60;97752.25;4946513;28;20637;-63
2021/12/04 01:11:40;;;;;;;3.93;3.60;;;;;;;1.51;72.26;97744.38;4944639;28;20230;-64
2021/12/04 01:14:08;;;;;;;4.27;3.33;;;;;;;1.13;73.83;97738.72;4945866;28;20241;-63
2021/12/04 01:16:36;;;;;;;3.90;3.57;;;;;;;0.43;76.32;97734.50;4945250;28;20231;-64
2021/12/04 01:19:03;;;;;;;3.40;3.10;;;;;;;0.83;78.22;97739.09;4946789;28;20237;-63
2021/12/04 01:21:30;;;;;;;4.43;4.03;;;;;;;1.50;75.24;97735.69;4939307;28;20237;-64
2021/12/04 01:23:57;;;;;;;3.73;2.80;;;;;;;1.37;74.87;97728.25;4945521;28;20237;-63
2021/12/04 01:26:25;;;;;;;3.60;3.30;;;;;;;0.59;77.82;97733.78;4946043;28;20233;-64
2021/12/04 01:28:52;;;;;;;3.60;3.30;;;;;;;1.65;74.79;97721.88;4943913;28;20711;-63
2021/12/04 01:31:23;;;;;;;3.30;3.00;;;;;;;1.84;73.98;97707.59;4946487;28;20252;-64
2021/12/04 01:33:50;;;;;;;3.70;3.10;;;;;;;0.85;79.05;97712.72;4945593;28;20236;-64
2021/12/04 01:36:17;;;;;;;5.37;3.43;;;;;;;0.75;79.23;97704.97;4945613;28;20234;-64
2021/12/04 01:38:44;;;;;;;3.90;3.50;;;;;;;1.21;76.66;97688.81;4943987;28;20227;-65
2021/12/04 01:41:11;;;;;;;3.63;3.17;;;;;;;0.75;79.22;97689.22;4930984;28;20235;-64
2021/12/04 01:43:38;;;;;;;3.77;3.47;;;;;;;0.33;79.78;97686.59;4944804;28;20226;-65
2021/12/04 01:46:05;;;;;;;4.47;3.70;;;;;;;2.19;73.74;97666.09;4946324;28;20240;-65
2021/12/04 01:48:33;;;;;;;3.90;3.57;;;;;;;0.99;76.90;97658.75;4942425;28;20468;-64
2021/12/04 01:51:00;;;;;;;3.63;3.20;;;;;;;0.93;77.49;97648.91;4946562;28;20230;-64
2021/12/04 01:53:27;;;;;;;4.23;3.47;;;;;;;2.18;74.60;97644.22;4942705;28;20234;-64
2021/12/04 01:55:56;;;;;;;3.23;3.00;;;;;;;1.87;75.90;97642.34;4944239;28;20230;-64
2021/12/04 01:58:25;;;;;;;4.37;3.90;;;;;;;2.73;72.20;97633.78;4946454;28;20244;-64
2021/12/04 02:00:53;;;;;;;5.60;4.20;;;;;;;2.48;72.83;97633.94;4945280;28;20272;-64
2021/12/04 02:03:21;;;;;;;6.40;3.57;;;;;;;1.54;77.66;97641.56;4956499;28;20743;-64
2021/12/04 02:05:50;;;;;;;4.60;4.20;;;;;;;3.10;71.20;97624.31;4945670;28;20609;-64
2021/12/04 02:08:22;;;;;;;4.20;3.80;;;;;;;2.46;73.75;97628.00;4942050;28;20593;-64
2021/12/04 02:10:54;;;;;;;4.60;4.10;;;;;;;3.23;69.79;97614.03;4935331;28;20227;-64
2021/12/04 02:13:21;;;;;;;5.73;4.10;;;;;;;3.40;69.35;97618.19;4943360;28;20226;-64
2021/12/04 02:15:49;;;;;;;5.37;3.83;;;;;;;2.95;72.03;97613.72;4938138;28;20740;-65
2021/12/04 02:18:18;;;;;;;7.80;5.23;;;;;;;2.57;74.20;97616.28;4945206;28;20750;-65
2021/12/04 02:20:46;;;;;;;6.43;5.10;;;;;;;2.91;72.84;97610.63;4943635;28;20230;-65
2021/12/04 02:23:13;;;;;;;6.27;4.90;;;;;;;2.98;71.57;97598.41;4943616;28;20427;-64
2021/12/04 02:25:40;;;;;;;5.67;4.70;;;;;;;3.05;70.37;97601.97;4942660;28;20231;-64
2021/12/04 02:28:10;;;;;;;7.00;4.73;;;;;;;3.41;68.81;97590.84;4942003;28;20241;-64
2021/12/04 02:30:39;;;;;;;4.37;3.90;;;;;;;2.54;74.65;97609.53;4945727;28;20736;-64
2021/12/04 02:33:13;;;;;;;5.50;4.50;;;;;;;3.23;70.46;97588.47;4940762;28;20762;-64
2021/12/04 02:35:53;;;;;;;5.23;4.70;;;;;;;2.76;72.12;97578.97;4944217;28;20260;-63
2021/12/04 02:38:23;;;;;;;4.73;3.93;;;;;;;3.22;69.33;97573.69;4934401;28;20635;-65
2021/12/04 02:40:53;;;;;;;4.47;4.00;;;;;;;2.86;73.20;97582.22;4944906;28;20673;-63
2021/12/04 02:43:21;;;;;;;5.23;3.80;;;;;;;2.21;73.38;97577.31;4943607;28;20223;-64
2021/12/04 02:45:48;;;;;;;5.37;4.17;;;;;;;2.38;74.24;97572.81;4942043;28;20223;-64
2021/12/04 02:48:16;;;;;;;4.73;4.30;;;;;;;3.23;72.32;97558.69;4940240;28;20234;-64
2021/12/04 02:50:43;;;;;;;5.37;4.20;;;;;;;1.38;79.37;97582.78;4942759;28;20613;-65
2021/12/04 02:53:11;;;;;;;5.30;4.20;;;;;;;2.28;75.85;97558.03;4938581;28;20233;-64
2021/12/04 02:55:39;;;;;;;6.63;4.00;;;;;;;2.52;75.33;97545.72;4945567;28;20234;-64
2021/12/04 02:58:06;;;;;;;4.67;4.00;;;;;;;1.16;79.15;97558.00;4941855;28;20727;-64
2021/12/04 03:00:33;;;;;;;4.93;4.43;;;;;;;1.16;81.86;97558.00;4944010;28;20227;-64
2021/12/04 03:03:02;;;;;;;4.83;3.37;;;;;;;0.22;85.07;97548.72;4942886;28;20223;-64
2021/12/04 03:05:30;;;;;;;4.40;4.00;;;;;;;1.06;80.87;97533.72;4944383;28;20228;-64
2021/12/04 03:07:58;;;;;;;4.80;4.20;;;;;;;1.32;81.80;97536.16;4936262;28;20768;-64
2021/12/04 03:10:26;;;;;;;4.77;3.90;;;;;;;2.93;74.83;97508.56;4942063;28;20232;-64
2021/12/04 03:12:53;;;;;;;4.33;3.90;;;;;;;2.82;75.49;97498.47;4940899;28;20227;-63
2021/12/04 03:15:21;;;;;;;5.33;4.47;;;;;;;1.69;79.33;97518.19;4941941;28;20223;-64
2021/12/04 03:17:49;;;;;;;5.20;4.70;;;;;;;3.06;74.69;97482.44;4944134;28;20223;-64
2021/12/04 03:20:17;;;;;;;4.20;3.80;;;;;;;3.08;74.93;97458.53;4945594;28;20229;-64
2021/12/04 03:22:46;;;;;;;6.07;4.70;;;;;;;1.81;81.34;97500.25;4933974;28;20231;-64
2021/12/04 03:25:15;;;;;;;5.63;4.27;;;;;;;1.90;81.48;97492.16;4946546;28;20223;-65
2021/12/04 03:27:47;;;;;;;5.87;4.13;;;;;;;2.23;81.73;97483.25;4936319;28;20228;-63
2021/12/04 03:30:28;;;;;;;5.03;4.17;;;;;;;2.50;78.86;97472.22;4933377;29;20681;-64
2021/12/04 03:35:17;;;;;;;4.27;3.27;;;;;;;1.28;80.49;97481.47;4942491;28;21959;-64
2021/12/04 03:41:06;;;;;;;6.67;3.90;;;;;;;1.99;82.98;97448.22;4943836;28;21340;-64
2021/12/04 03:43:33;;;;;;;5.97;4.00;;;;;;;2.64;76.64;97427.69;4943629;28;20962;-63
2021/12/04 03:46:02;;;;;;;4.67;4.27;;;;;;;3.56;74.82;97423.97;4942002;28;20784;-64
2021/12/04 03:51:00;;;;;;;4.43;3.80;;;;;;;3.71;73.65;97411.59;4940544;28;20835;-64
2021/12/04 03:53:28;;;;;;;5.73;3.97;;;;;;;2.81;77.36;97412.56;4945407;28;20240;-63
2021/12/04 03:55:55;;;;;;;6.67;4.30;;;;;;;2.22;80.87;97435.06;4946033;28;20854;-64
2021/12/04 03:58:23;;;;;;;4.17;3.87;;;;;;;1.69;83.22;97449.88;4947705;28;20231;-64
2021/12/04 04:00:51;;;;;;;6.93;4.17;;;;;;;2.10;80.50;97424.13;4946641;28;20236;-64
2021/12/04 04:03:18;;;;;;;4.20;3.53;;;;;;;1.89;82.54;97430.03;4942292;28;20861;-64
2021/12/04 04:05:45;;;;;;;5.07;3.63;;;;;;;3.66;75.30;97392.03;4947521;28;20226;-64
2021/12/04 04:08:14;;;;;;;5.27;3.93;;;;;;;4.37;72.09;97381.59;4939087;28;20234;-65
2021/12/04 04:10:42;;;;;;;5.63;4.10;;;;;;;4.16;71.64;97382.41;4946235;28;20235;-64
2021/12/04 04:13:11;;;;;;;5.30;4.47;;;;;;;4.16;71.65;97372.69;4936166;28;20240;-64
2021/12/04 04:15:39;;;;;;;5.70;4.30;;;;;;;4.23;71.70;97382.47;4939465;28;20219;-64
2021/12/04 04:18:08;;;;;;;6.50;4.40;;;;;;;4.48;71.08;97381.06;4946437;28;20243;-64
2021/12/04 04:20:35;;;;;;;7.67;5.00;;;;;;;4.19;71.21;97373.31;4944685;28;20724;-64
2021/12/04 04:23:03;;;;;;;5.87;4.43;;;;;;;4.58;70.45;97378.09;4946117;28;20231;-63
2021/12/04 04:25:30;;;;;;;6.50;5.37;;;;;;;4.58;70.68;97366.75;4946443;28;20235;-64
2021/12/04 04:27:57;;;;;;;6.50;5.20;;;;;;;4.13;70.97;97372.22;4946863;28;20219;-65
2021/12/04 04:30:25;;;;;;;7.80;5.20;;;;;;;4.74;70.37;97371.75;4946430;28;20657;-64
2021/12/04 04:32:53;;;;;;;6.10;5.00;;;;;;;4.30;71.58;97370.19;4948411;28;20231;-63
2021/12/04 04:35:23;;;;;;;6.60;5.67;;;;;;;4.58;69.72;97361.47;4947447;28;20227;-64
2021/12/04 04:38:06;;;;;;;5.47;4.63;;;;;;;4.65;70.53;97367.59;4946470;28;20226;-64
2021/12/04 05:00:32;;;;;;;6.67;5.33;;;;;;;4.39;71.03;97347.91;4945016;28;20282;-64
2021/12/04 05:13:20;;;;;;;5.37;4.33;;;;;;;5.21;69.60;97343.78;4944484;28;20227;-64
2021/12/04 05:21:05;;;;;;;7.50;5.30;;;;;;;4.76;72.08;97338.03;4940446;28;20609;-64
2021/12/04 05:23:34;;;;;;;5.40;4.57;;;;;;;5.58;69.11;97331.13;4939627;28;20238;-63
2021/12/04 05:26:03;;;;;;;7.37;4.57;;;;;;;5.84;67.75;97317.13;4943612;28;20229;-64
2021/12/04 05:28:30;;;;;;;7.67;5.67;;;;;;;5.98;66.59;97317.16;4944855;28;20231;-64
2021/12/04 05:30:58;;;;;;;15.07;7.93;;;;;;;6.35;64.90;97313.13;4946320;28;20226;-64
2021/12/04 05:33:26;;;;;;;12.73;8.83;;;;;;;6.12;65.40;97310.03;4958227;28;20220;-63
2021/12/04 05:35:53;;;;;;;11.80;8.37;;;;;;;5.94;65.52;97311.44;4936914;28;20238;-64
2021/12/04 05:38:21;;;;;;;12.60;9.43;;;;;;;5.39;66.75;97330.03;4959432;28;20284;-64
2021/12/04 05:40:48;;;;;;;12.63;9.17;;;;;;;5.52;66.13;97323.16;4936504;28;20237;-64
2021/12/04 05:43:17;;;;;;;13.40;9.73;;;;;;;5.26;65.86;97322.88;4957609;28;20230;-64
2021/12/04 05:45:52;;;;;;;42.57;10.27;;;;;;;4.37;68.99;97342.00;4959906;28;20326;-64
2021/12/04 05:48:30;;;;;;;11.67;8.33;;;;;;;4.38;69.38;97350.75;4931867;28;20246;-64
2021/12/04 05:53:39;;;;;;;11.70;8.37;;;;;;;4.40;68.66;97336.34;4942127;28;20231;-64
2021/12/04 05:56:06;;;;;;;10.83;8.27;;;;;;;4.54;68.79;97340.72;4939948;28;20725;-64
2021/12/04 05:58:33;;;;;;;12.53;9.00;;;;;;;3.42;71.66;97342.09;4927073;28;20265;-64
2021/12/04 06:01:04;;;;;;;11.40;7.90;;;;;;;4.66;68.84;97343.63;4943775;28;20227;-64
2021/12/04 06:03:33;;;;;;;9.80;7.33;;;;;;;4.63;67.75;97327.38;4943552;28;20228;-64
2021/12/04 06:06:02;;;;;;;10.43;7.10;;;;;;;4.56;67.87;97331.78;4945720;28;20236;-63
2021/12/04 06:08:29;;;;;;;11.73;7.50;;;;;;;4.89;67.11;97329.38;4944751;28;20246;-63
2021/12/04 06:10:57;;;;;;;9.67;6.97;;;;;;;4.11;69.98;97346.06;4945509;28;20232;-64
2021/12/04 06:13:24;;;;;;;10.33;7.03;;;;;;;4.87;67.28;97324.28;4943709;28;20618;-63
2021/12/04 06:15:51;;;;;;;9.90;7.10;;;;;;;5.24;65.89;97309.03;4942351;28;20223;-64
2021/12/04 06:18:20;;;;;;;10.70;7.47;;;;;;;5.13;65.87;97308.78;4945515;28;20226;-63
2021/12/04 06:23:35;;;;;;;11.60;7.60;;;;;;;4.67;67.05;97307.47;4942529;28;20614;-64
2021/12/04 06:26:06;;;;;;;12.13;7.97;;;;;;;4.55;67.78;97315.13;4944810;28;20253;-64
2021/12/04 06:28:33;;;;;;;9.37;6.93;;;;;;;4.66;67.42;97317.22;4936708;28;20249;-64
2021/12/04 06:31:00;;;;;;;8.80;7.10;;;;;;;4.80;67.31;97318.13;4943430;28;20245;-63
2021/12/04 06:33:27;;;;;;;11.13;7.30;;;;;;;4.49;68.74;97322.00;4944587;28;20231;-64
2021/12/04 06:35:55;;;;;;;9.50;6.57;;;;;;;4.62;67.78;97313.34;4941193;28;20614;-64
2021/12/04 06:38:23;;;;;;;8.40;6.37;;;;;;;5.17;65.88;97305.53;4929657;28;20233;-64
2021/12/04 06:40:51;;;;;;;12.83;6.60;;;;;;;4.97;66.46;97308.09;4946015;28;20236;-63
2021/12/04 06:43:19;;;;;;;7.73;5.83;;;;;;;4.50;67.70;97313.06;4945949;28;20234;-64
2021/12/04 06:45:54;;;;;;;8.97;6.00;;;;;;;4.90;66.72;97313.31;4937101;28;20227;-63
2021/12/04 06:48:24;;;;;;;8.10;6.40;;;;;;;4.55;67.70;97317.75;4941529;28;20260;-64
2021/12/04 06:50:56;;;;;;;8.07;5.77;;;;;;;5.30;65.57;97306.63;4922262;29;20677;-63
2021/12/04 06:55:55;;;;;;;18.47;8.90;;;;;;;3.69;70.02;97328.38;4957671;28;20904;-64
2021/12/04 06:58:24;;;;;;;18.80;9.53;;;;;;;4.33;69.53;97331.03;4942893;28;20252;-64
2021/12/04 07:00:53;;;;;;;20.93;11.43;;;;;;;4.94;66.82;97320.88;4946259;28;20234;-64
2021/12/04 07:03:20;;;;;;;7.90;5.40;;;;;;;5.00;66.75;97312.19;4938106;28;20241;-63
2021/12/04 07:05:48;;;;;;;7.10;5.30;;;;;;;4.98;66.07;97306.28;4937230;28;20873;-65
2021/12/04 07:08:15;;;;;;;9.53;6.33;;;;;;;5.35;65.58;97304.19;4937120;28;20246;-64
2021/12/04 07:10:43;;;;;;;13.60;8.97;;;;;;;4.49;67.67;97310.63;4942736;28;20227;-64
2021/12/04 07:13:10;;;;;;;7.87;5.50;;;;;;;4.23;68.85;97329.69;4946004;28;20227;-64
2021/12/04 07:15:37;;;;;;;6.13;4.63;;;;;;;4.77;67.47;97315.91;4947288;28;20241;-64
2021/12/04 07:18:04;;;;;;;6.77;4.57;;;;;;;4.85;67.18;97312.25;4961276;28;20250;-64
2021/12/04 07:20:31;;;;;;;7.30;5.97;;;;;;;4.97;66.25;97305.44;4949409;28;20227;-63
2021/12/04 07:22:59;;;;;;;7.77;5.40;;;;;;;5.18;65.75;97295.81;4949912;28;20231;-64
2021/12/04 07:25:27;;;;;;;5.60;4.60;;;;;;;4.37;67.10;97294.50;4948928;28;20222;-64
2021/12/04 07:27:54;;;;;;;5.77;4.60;;;;;;;4.68;67.32;97303.84;4942143;28;20726;-64
2021/12/04 07:30:22;;;;;;;23.07;13.17;;;;;;;5.35;65.14;97289.13;4949484;28;20231;-64
2021/12/04 07:32:49;;;;;;;13.03;7.77;;;;;;;5.07;65.80;97292.72;4948523;28;20233;-64
2021/12/04 07:35:16;;;;;;;7.57;5.83;;;;;;;5.14;65.42;97289.25;4949650;28;20222;-64
2021/12/04 07:37:44;;;;;;;5.50;4.60;;;;;;;4.82;66.70;97292.34;4944904;28;20231;-65
2021/12/04 07:40:11;;;;;;;6.67;5.13;;;;;;;5.08;65.89;97296.16;4948522;28;20227;-64
2021/12/04 07:42:39;;;;;;;7.73;6.10;;;;;;;4.57;67.83;97299.09;4949530;28;20756;-64
2021/12/04 07:45:07;;;;;;;5.10;4.43;;;;;;;5.31;65.12;97285.28;4949154;28;20238;-64
2021/12/04 07:47:34;;;;;;;5.50;4.53;;;;;;;5.48;64.62;97275.16;4948880;28;20219;-64
2021/12/04 07:50:02;;;;;;;5.13;4.63;;;;;;;3.78;69.51;97299.06;4950039;28;20216;-64
2021/12/04 07:52:29;;;;;;;7.50;6.70;;;;;;;5.00;66.95;97286.56;4948093;28;20227;-64
2021/12/04 07:54:56;;;;;;;5.00;4.30;;;;;;;3.83;70.92;97300.31;4949124;28;20226;-65
2021/12/04 07:57:25;;;;;;;4.93;4.43;;;;;;;5.10;66.30;97279.06;4944969;28;20666;-63
2021/12/04 07:59:52;;;;;;;5.10;3.87;;;;;;;5.54;65.17;97271.69;4947673;28;20224;-64
2021/12/04 08:02:19;;;;;;;5.37;4.70;;;;;;;5.64;64.65;97268.66;4948193;28;20227;-65
2021/12/04 08:04:46;;;;;;;4.70;4.30;;;;;;;5.30;64.50;97272.25;4951585;28;20603;-64
2021/12/04 08:07:14;;;;;;;5.90;4.83;;;;;;;5.17;66.05;97275.66;4951823;28;20606;-65
2021/12/04 08:09:41;;;;;;;5.00;4.20;;;;;;;5.12;65.71;97273.59;4947349;28;20307;-64
2021/12/04 08:12:10;;;;;;;4.60;4.17;;;;;;;5.31;65.66;97273.88;4950910;28;20239;-65
2021/12/04 08:14:38;;;;;;;4.07;3.67;;;;;;;5.12;65.39;97270.97;4947724;28;20227;-65
2021/12/04 08:17:05;;;;;;;4.77;4.07;;;;;;;5.70;64.23;97265.22;4938245;29;20236;-65
2021/12/04 08:19:32;;;;;;;4.83;4.10;;;;;;;4.64;67.34;97270.91;4947833;28;20230;-65
2021/12/04 08:21:59;;;;;;;6.40;5.40;;;;;;;5.30;65.67;97265.13;4945255;28;20241;-65
2021/12/04 08:24:26;;;;;;;5.87;4.87;;;;;;;4.88;66.68;97264.34;4948906;28;20229;-65
2021/12/04 08:26:54;;;;;;;6.73;5.47;;;;;;;5.16;66.09;97260.81;4942839;28;20708;-65
2021/12/04 08:29:21;;;;;;;6.80;6.07;;;;;;;5.63;64.40;97259.94;4950598;28;20242;-65
2021/12/04 08:31:50;;;;;;;7.80;6.53;;;;;;;5.67;64.21;97249.75;4943142;28;20231;-68
2021/12/04 08:34:18;;;;;;;8.33;7.10;;;;;;;5.83;64.20;97249.38;4947331;28;20726;-68
2021/12/04 08:36:46;;;;;;;7.90;6.97;;;;;;;6.00;63.82;97241.00;4965336;28;20252;-65
2021/12/04 08:39:13;;;;;;;7.70;6.13;;;;;;;5.77;64.08;97254.66;4931577;29;20221;-66
2021/12/04 08:41:41;;;;;;;8.20;6.50;;;;;;;6.01;63.77;97250.59;4950470;28;20245;-66
2021/12/04 08:44:09;;;;;;;7.03;5.77;;;;;;;5.77;64.38;97244.06;4950132;28;20227;-67
2021/12/04 08:46:37;;;;;;;4.70;3.97;;;;;;;5.60;64.75;97239.16;4951231;28;20231;-64
2021/12/04 08:49:06;;;;;;;4.80;3.70;;;;;;;5.67;64.76;97247.13;4961257;23;20251;-70
2021/12/04 08:51:34;;;;;;;5.10;3.47;;;;;;;5.70;64.69;97246.72;4939155;28;20228;-72
2021/12/04 08:54:02;;;;;;;4.93;3.70;;;;;;;5.39;65.83;97255.19;4949944;28;20230;-72
2021/12/04 08:56:30;;;;;;;3.57;3.27;;;;;;;5.67;64.85;97241.00;4948670;28;20613;-70
2021/12/04 08:58:57;;;;;;;4.30;3.90;;;;;;;5.49;65.25;97241.59;4946024;28;20219;-70
2021/12/04 09:01:28;;;;;;;4.77;4.20;;;;;;;5.68;65.31;97242.63;4946160;28;20228;-70
2021/12/04 09:04:00;;;;;;;4.40;4.00;;;;;;;5.86;64.65;97242.03;4937237;28;20623;-70
2021/12/04 09:06:27;;;;;;;4.60;3.73;;;;;;;5.56;65.44;97240.56;4943054;28;20748;-70
2021/12/04 09:08:55;;;;;;;4.23;3.40;;;;;;;5.83;64.78;97240.59;4937066;28;20237;-71
2021/12/04 09:11:27;;;;;;;5.20;4.13;;;;;;;6.19;63.64;97234.09;4934924;28;20227;-71
2021/12/04 09:13:54;;;;;;;4.13;3.63;;;;;;;6.12;64.14;97227.97;4943269;28;20716;-70
2021/12/04 09:16:23;;;;;;;5.43;3.83;;;;;;;5.70;65.65;97225.56;4939676;28;20224;-70
2021/12/04 09:18:51;;;;;;;4.53;3.57;;;;;;;5.91;64.78;97211.31;4940373;28;20301;-71
2021/12/04 09:21:18;;;;;;;7.73;4.77;;;;;;;5.75;65.63;97219.63;4940530;28;20228;-70
2021/12/04 09:24:01;;;;;;;8.47;5.37;;;;;;;5.82;65.55;97218.63;4931823;28;20234;-70
2021/12/04 09:29:21;;;;;;;8.73;6.67;;;;;;;5.71;66.26;97218.41;4936210;29;20240;-70
2021/12/04 09:32:42;;;;;;;7.87;5.57;;;;;;;5.49;66.97;97215.94;4934622;29;20231;-70
2021/12/04 10:02:42;;;;;;;12.10;8.33;;;;;;;5.89;70.06;97175.50;4943163;29;21788;-70
2021/12/04 10:05:18;;;;;;;14.03;9.90;;;;;;;6.11;68.72;97168.13;4938573;29;20631;-70
2021/12/04 10:16:42;;;;;;;9.60;5.90;;;;;;;5.93;69.15;97156.34;4922971;29;20787;-70
2021/12/04 10:21:59;;;;;;;9.57;6.80;;;;;;;6.40;68.80;97140.38;4921768;29;20226;-70
2021/12/04 10:33:09;;;;;;;12.37;8.63;;;;;;;5.94;73.70;97115.63;4911604;29;20582;-70
2021/12/04 10:35:37;;;;;;;12.53;9.80;;;;;;;6.18;73.59;97105.41;4936767;29;20240;-70
2021/12/04 10:38:09;;;;;;;12.27;9.23;;;;;;;6.01;73.51;97110.34;4944456;29;20227;-70
2021/12/04 10:40:41;;;;;;;11.50;9.17;;;;;;;6.13;73.09;97094.63;4934158;29;20234;-70
2021/12/04 10:43:14;;;;;;;11.20;7.53;;;;;;;6.30;71.77;97093.13;4926704;29;20761;-71
2021/12/04 10:45:49;;;;;;;11.17;8.87;;;;;;;6.39;72.21;97083.19;4949157;29;20228;-71
2021/12/04 10:48:20;;;;;;;7.87;6.87;;;;;;;6.27;74.83;97085.63;4932812;29;20344;-71
2021/12/04 10:51:04;;;;;;;8.70;6.77;;;;;;;6.42;73.72;97072.13;4930016;29;20362;-71
2021/12/04 10:53:37;;;;;;;8.63;6.90;;;;;;;6.57;73.55;97061.28;4933685;29;20243;-70
2021/12/04 11:46:41;;;;;;;2.10;2.00;;;;;;;5.90;89.19;96976.03;5082115;28;20716;-69
2021/12/04 11:49:18;;;;;;;2.00;1.90;;;;;;;5.65;90.15;96976.75;5083835;28;20229;-71
2021/12/04 11:52:02;;;;;;;2.53;2.10;;;;;;;6.33;88.49;96957.72;5090731;28;20228;-70
2021/12/04 11:54:32;;;;;;;2.30;2.13;;;;;;;7.02;83.42;96941.13;5051973;28;20345;-72
2021/12/04 11:57:09;;;;;;;2.20;2.00;;;;;;;6.32;88.26;96958.78;5054952;28;20225;-68
2021/12/04 11:59:39;;;;;;;2.23;2.13;;;;;;;7.00;84.99;96945.81;5069729;28;20223;-68
2021/12/04 12:02:08;;;;;;;2.83;2.23;;;;;;;5.93;91.21;96979.06;5070007;28;20228;-69
2021/12/04 12:04:39;;;;;;;2.27;2.10;;;;;;;6.75;85.64;96954.59;5069488;28;20237;-69
2021/12/04 12:07:20;;;;;;;2.10;2.00;;;;;;;7.21;82.86;96928.72;5080097;28;20231;-68
2021/12/04 12:10:00;;;;;;;3.10;2.80;;;;;;;7.41;82.74;96931.97;5072457;28;20241;-68
2021/12/04 12:12:34;;;;;;;3.40;3.10;;;;;;;7.11;82.91;96943.25;5063220;28;20219;-69
2021/12/04 12:15:07;;;;;;;3.00;2.80;;;;;;;7.32;82.37;96942.06;5050682;28;20227;-69
2021/12/04 12:17:37;;;;;;;4.37;2.63;;;;;;;7.02;82.95;96947.25;5030519;28;20230;-70
2021/12/04 12:20:09;;;;;;;2.60;2.40;;;;;;;6.70;85.69;96959.75;5046826;28;20224;-69
2021/12/04 12:22:50;;;;;;;3.90;2.63;;;;;;;7.29;82.76;96931.09;5048537;28;21000;-69
2021/12/04 12:36:02;;;;;;;2.60;2.40;;;;;;;6.09;91.33;96958.47;5067714;28;20663;-70
2021/12/04 12:37:13;;;;;;;2.60;2.40;;;;;;;6.59;87.79;96945.34;5067290;28;21717;-70
2021/12/04 12:39:51;;;;;;;2.50;2.30;;;;;;;6.99;85.54;96931.78;5069407;28;20224;-70
2021/12/04 12:42:27;;;;;;;2.70;2.50;;;;;;;7.39;83.22;96923.44;5068201;28;20231;-68
2021/12/04 12:45:12;;;;;;;2.30;2.10;;;;;;;7.06;86.33;96937.81;5067630;28;21354;-70
2021/12/04 12:47:57;;;;;;;2.00;1.90;;;;;;;6.91;85.95;96932.88;5067816;28;20223;-67
2021/12/04 12:50:38;;;;;;;1.93;1.83;;;;;;;6.17;87.18;96937.84;5070659;28;21553;-67
2021/12/04 12:53:10;;;;;;;2.43;2.23;;;;;;;7.45;82.85;96896.03;5069647;28;20227;-67
2021/12/04 12:55:38;;;;;;;2.10;2.00;;;;;;;7.37;84.00;96900.78;5071481;28;20222;-67
2021/12/04 12:58:22;;;;;;;2.43;2.23;;;;;;;5.75;90.09;96947.19;5075677;28;20228;-67
2021/12/04 13:12:12;;;;;;;2.40;2.20;;;;;;;7.00;86.43;96938.69;5067215;28;20219;-67
2021/12/04 13:14:41;;;;;;;3.03;2.13;;;;;;;6.97;87.42;96939.13;5067429;28;20235;-68
2021/12/04 13:17:11;;;;;;;2.00;1.90;;;;;;;6.76;86.63;96949.09;5068074;28;20235;-68
2021/12/04 13:19:41;;;;;;;4.17;2.60;;;;;;;7.05;86.00;96954.75;5068241;28;20280;-69
2021/12/04 13:22:12;;;;;;;3.57;2.53;;;;;;;6.98;86.72;96948.72;5067342;28;20231;-65
2021/12/04 13:24:41;;;;;;;96.30;89.53;;;;;;;5.93;89.72;96987.00;5067295;28;20224;-67
2021/12/04 13:29:41;;;;;;;2.47;2.30;;;;;;;6.58;85.62;96957.78;5066433;28;20745;-72
2021/12/04 13:32:11;;;;;;;2.30;2.10;;;;;;;6.18;87.94;96968.56;5071687;28;20219;-71
2021/12/04 13:34:40;;;;;;;3.30;3.00;;;;;;;7.17;86.33;96938.94;5061478;28;20227;-70
2021/12/04 13:37:09;;;;;;;1.70;1.60;;;;;;;6.06;89.02;96964.97;5042756;28;20236;-67
2021/12/04 13:39:38;;;;;;;2.00;1.90;;;;;;;6.92;87.82;96934.47;5061914;28;20224;-67
2021/12/04 13:42:06;;;;;;;2.10;1.90;;;;;;;6.91;87.69;96954.06;5043085;28;20628;-69
2021/12/04 13:44:37;;;;;;;2.47;2.27;;;;;;;6.18;87.76;96973.06;5047203;28;20230;-67
2021/12/04 13:47:11;;;;;;;2.50;2.30;;;;;;;6.35;89.48;96978.69;5044767;28;20232;-67
2021/12/04 13:49:57;;;;;;;1.43;1.40;;;;;;;5.46;92.88;96997.75;5046504;28;20236;-70
2021/12/04 13:52:27;;;;;;;2.00;1.83;;;;;;;6.84;88.48;96949.84;5066410;28;20255;-68
2021/12/04 13:55:03;;;;;;;2.57;2.07;;;;;;;6.38;90.16;96970.34;5067479;28;20221;-68
2021/12/04 13:57:30;;;;;;;2.53;2.37;;;;;;;6.93;87.72;96953.84;5066013;28;20226;-66
2021/12/04 13:59:59;;;;;;;2.73;2.53;;;;;;;7.10;85.91;96962.88;5066449;28;20218;-71
2021/12/04 14:02:29;;;;;;;2.53;2.33;;;;;;;7.14;85.47;96969.34;5049946;28;20223;-69
2021/12/04 14:05:13;;;;;;;3.90;3.30;;;;;;;6.81;84.76;96974.13;5065694;28;20285;-70
2021/12/04 14:07:50;;;;;;;2.30;2.10;;;;;;;6.73;88.91;97010.44;5066879;28;20348;-67
2021/12/04 14:10:30;;;;;;;3.40;3.10;;;;;;;6.71;87.35;97012.50;5037654;28;20600;-68
2021/12/04 14:13:00;;;;;;;3.20;2.83;;;;;;;7.56;84.43;96983.84;5066002;28;20212;-69
2021/12/04 14:15:28;;;;;;;2.60;2.40;;;;;;;7.72;82.77;96982.47;5066724;28;20230;-69
2021/12/04 14:18:07;;;;;;;3.03;2.73;;;;;;;7.14;83.12;96993.19;5066096;28;20587;-68
2021/12/04 14:20:37;;;;;;;2.80;2.60;;;;;;;7.23;85.91;96992.94;5066607;28;20231;-69
2021/12/04 14:23:04;;;;;;;3.70;2.87;;;;;;;6.78;88.76;97015.13;5066762;28;20228;-69
2021/12/04 14:25:31;;;;;;;2.43;2.23;;;;;;;6.65;88.94;97012.56;5066667;28;20235;-68
2021/12/04 14:28:00;;;;;;;2.47;2.20;;;;;;;7.25;85.41;96985.56;5062809;28;20246;-69
2021/12/04 14:30:36;;;;;;;2.40;2.20;;;;;;;6.44;90.62;97029.56;5064901;28;20228;-68
2021/12/04 14:33:07;;;;;;;2.57;2.30;;;;;;;7.24;85.38;97005.16;5064769;28;20814;-69
2021/12/04 14:35:45;;;;;;;2.70;2.50;;;;;;;7.41;84.65;97000.13;5067229;28;20230;-69
2021/12/04 14:38:24;;;;;;;2.90;2.50;;;;;;;7.19;86.11;97023.56;5062963;28;21642;-68
2021/12/04 14:41:07;;;;;;;3.10;2.30;;;;;;;7.22;85.19;97016.00;5066625;28;20365;-68
2021/12/04 14:43:38;;;;;;;2.70;2.50;;;;;;;7.15;85.94;97023.19;5065917;28;20223;-68
2021/12/04 14:46:08;;;;;;;3.20;2.27;;;;;;;6.91;87.25;97033.56;5066066;28;20226;-68
2021/12/04 14:48:44;;;;;;;2.27;2.07;;;;;;;6.87;87.01;97039.50;5065858;28;20227;-71
2021/12/04 14:51:15;;;;;;;2.20;2.10;;;;;;;7.35;86.00;97043.41;5066270;28;20852;-73
2021/12/04 14:53:53;;;;;;;2.30;2.10;;;;;;;7.72;81.95;97025.72;5065116;28;20727;-69
2021/12/04 14:56:22;;;;;;;3.73;2.50;;;;;;;8.34;79.59;97009.69;5066580;28;20308;-69
2021/12/04 14:58:49;;;;;;;3.57;2.43;;;;;;;8.47;78.30;97003.41;5064818;28;20795;-71
2021/12/04 15:01:21;;;;;;;2.67;2.20;;;;;;;7.08;84.45;97059.53;5066579;28;20225;-70
2021/12/04 15:03:52;;;;;;;2.53;1.93;;;;;;;6.95;84.91;97068.41;5061479;28;20596;-68